Main page
METAR-TAF:

METAR-TAF

Airports :

Montpellier, France

Montpellier–Méditerranée Airport

latitude: 43-35N, longitude: 003-58E, elevation: 5 m

Current weather observation

The report was made 14 minutes ago, at 07:00 UTC
Wind 8 kt from the Northwest
Temperature 7°C
Humidity 66%
Pressure 1021 hPa
Visibility 10 km or more
no clouds below 1500 m and no cumulonimbus

METAR: LFMT 180700Z AUTO 32008KT CAVOK 07/01 Q1021 NOSIG

Time: 08:14 (07:14 UTC)

Forecast

The report was made 5 hours and 14 minutes ago, at 02:00 UTC
Forecast valid from 18 at 03 UTC to 19 at 03 UTC
Wind 15 kt from the West/Northwest
Visibility 10 km or more
no clouds below 1500 m and no cumulonimbus
Becoming
from 18 at 14 UTC to 18 at 16 UTC
Wind 8 kt from the North
Becoming
from 19 at 01 UTC to 19 at 03 UTC
Broken clouds at a height of 4000 ft

TAF: LFMT 180200Z 1803/1903 30015KT CAVOK BECMG 1814/1816 36008KT BECMG 1901/1903 BKN040

Weather observations and forecasts of more than 4000 airports (METAR and TAF reports).

The available stations are represented by yellow and red dots on the map.

Hover mouse over dot to see the name of the station.

Then click to see weather observations and forecasts.

To change the map : click on the green buttons with a black cross to zoom in, on the green button with a dash to zoom out, or on the green arrows for adjacent maps.


METAR-TAF: